createdAt,value
2022-11-05T00:02:26.631Z,39.08
2022-11-05T00:05:18.053Z,38.42
2022-11-05T00:08:14.207Z,38.10
2022-11-05T00:10:45.154Z,45.60
2022-11-05T00:13:39.810Z,35.53
2022-11-05T00:16:32.571Z,39.80
2022-11-05T00:19:13.257Z,39.60
2022-11-05T00:22:02.854Z,42.80
2022-11-05T00:24:50.551Z,42.33
2022-11-05T00:27:18.427Z,40.97
2022-11-05T00:32:31.712Z,35.53
2022-11-05T00:35:03.959Z,40.88
2022-11-05T00:37:35.905Z,37.25
2022-11-05T00:40:09.930Z,44.33
2022-11-05T00:43:01.761Z,37.60
2022-11-05T00:45:33.557Z,43.00
2022-11-05T00:48:23.678Z,39.53
2022-11-05T00:50:54.280Z,41.55
2022-11-05T00:53:26.264Z,36.15
2022-11-05T00:55:56.767Z,40.20
2022-11-05T00:58:27.841Z,39.40
2022-11-05T01:00:57.481Z,37.58
2022-11-05T01:03:30.714Z,36.90
2022-11-05T01:06:13.810Z,39.88
2022-11-05T01:08:45.971Z,48.20
2022-11-05T01:11:37.005Z,52.10
2022-11-05T01:14:13.350Z,39.58
2022-11-05T01:16:47.880Z,38.03
2022-11-05T01:21:50.580Z,35.45
2022-11-05T01:24:22.649Z,43.83
2022-11-05T01:26:50.152Z,39.58
2022-11-05T01:29:21.132Z,41.20
2022-11-05T01:31:50.203Z,36.70
2022-11-05T01:34:20.702Z,35.53
2022-11-05T01:36:50.603Z,36.08
2022-11-05T01:39:20.487Z,44.25
2022-11-05T01:41:49.339Z,34.90
2022-11-05T01:44:54.955Z,38.22
2022-11-05T01:48:01.965Z,35.35
2022-11-05T01:50:47.789Z,42.30
2022-11-05T01:53:37.146Z,35.55
2022-11-05T01:56:46.854Z,46.85
2022-11-05T01:59:44.237Z,40.38
2022-11-05T02:02:13.483Z,45.05
2022-11-05T02:04:50.190Z,45.63
2022-11-05T02:07:24.861Z,42.78
2022-11-05T02:10:23.063Z,49.08
2022-11-05T02:12:52.280Z,50.00
2022-11-05T02:15:57.509Z,51.47
2022-11-05T02:18:44.113Z,45.03
2022-11-05T02:21:32.613Z,38.90
2022-11-05T02:24:41.419Z,38.92
2022-11-05T02:27:48.738Z,45.22
2022-11-05T02:30:53.086Z,42.55
2022-11-05T02:33:28.909Z,47.08
2022-11-05T02:36:22.094Z,49.05
2022-11-05T02:39:04.529Z,47.33
2022-11-05T02:42:05.899Z,49.95
2022-11-05T02:44:50.462Z,46.03
2022-11-05T02:47:48.428Z,46.67
2022-11-05T02:50:53.831Z,43.03
2022-11-05T02:53:42.302Z,48.08
2022-11-05T02:56:35.433Z,45.75
2022-11-05T02:59:03.932Z,44.50
2022-11-05T03:01:36.562Z,47.03
2022-11-05T03:04:13.427Z,43.28
2022-11-05T03:07:17.409Z,51.47
2022-11-05T03:10:26.454Z,46.60
2022-11-05T03:13:15.749Z,52.60
2022-11-05T03:16:31.066Z,44.08
2022-11-05T03:19:19.409Z,46.97
2022-11-05T03:21:53.774Z,43.70
2022-11-05T03:27:30.238Z,45.50
2022-11-05T03:30:06.398Z,41.38
2022-11-05T03:32:42.007Z,39.35
2022-11-05T03:35:28.814Z,39.28
2022-11-05T03:38:02.175Z,39.70
2022-11-05T03:40:36.964Z,36.58
2022-11-05T03:43:10.613Z,35.08
2022-11-05T03:45:46.683Z,33.10
2022-11-05T03:48:19.168Z,38.47
2022-11-05T03:50:56.073Z,37.78
2022-11-05T03:53:33.264Z,32.25
2022-11-05T03:56:15.629Z,32.40
2022-11-05T03:58:49.066Z,32.80
2022-11-05T04:01:20.173Z,33.00
2022-11-05T04:03:48.566Z,32.80
2022-11-05T04:06:38.141Z,33.20
2022-11-05T04:09:28.101Z,28.65
2022-11-05T04:12:16.943Z,32.10
2022-11-05T04:14:47.690Z,31.45
2022-11-05T04:17:16.805Z,30.77
2022-11-05T04:20:11.035Z,30.45
2022-11-05T04:23:00.022Z,31.27
2022-11-05T04:25:28.725Z,25.85
2022-11-05T04:28:05.585Z,27.33
2022-11-05T04:30:33.605Z,27.30
2022-11-05T04:33:13.700Z,26.17
2022-11-05T04:35:47.176Z,25.85
2022-11-05T04:38:28.813Z,25.13
2022-11-05T04:41:14.531Z,22.02
2022-11-05T04:43:45.905Z,22.23
2022-11-05T04:46:13.113Z,24.10
2022-11-05T04:48:47.470Z,23.67
2022-11-05T04:51:16.298Z,24.70
2022-11-05T04:53:45.277Z,23.13
2022-11-05T04:56:24.570Z,24.48
2022-11-05T04:58:53.036Z,25.15
2022-11-05T05:01:25.267Z,17.42
2022-11-05T05:03:55.236Z,21.02
2022-11-05T05:06:27.565Z,24.23
2022-11-05T05:08:56.466Z,18.08
2022-11-05T05:11:28.503Z,20.10
2022-11-05T05:14:00.298Z,29.63
2022-11-05T05:16:28.746Z,32.53
2022-11-05T05:18:57.519Z,26.17
2022-11-05T05:21:43.783Z,29.75
2022-11-05T05:24:20.110Z,20.08
2022-11-05T05:26:52.119Z,31.27
2022-11-05T05:29:23.039Z,22.33
2022-11-05T05:31:51.394Z,23.50
2022-11-05T05:34:29.888Z,18.23
2022-11-05T05:36:59.994Z,19.90
2022-11-05T05:39:29.676Z,22.90
2022-11-05T05:41:57.771Z,18.70
2022-11-05T05:44:25.326Z,18.55
2022-11-05T05:46:57.943Z,19.27
2022-11-05T05:49:29.643Z,20.23
2022-11-05T05:51:57.557Z,21.17
2022-11-05T05:54:30.889Z,21.13
2022-11-05T05:57:02.806Z,20.05
2022-11-05T05:59:31.667Z,21.77
2022-11-05T06:02:03.941Z,17.83
2022-11-05T06:04:32.641Z,23.23
2022-11-05T06:07:03.028Z,22.30
2022-11-05T06:09:32.459Z,25.77
2022-11-05T06:12:03.086Z,21.33
2022-11-05T06:14:32.719Z,25.60
2022-11-05T06:17:03.327Z,26.75
2022-11-05T06:22:17.482Z,30.55
2022-11-05T06:24:45.660Z,23.42
2022-11-05T06:27:15.440Z,28.58
2022-11-05T06:29:44.503Z,26.58
2022-11-05T06:32:13.626Z,29.10
2022-11-05T06:34:44.122Z,32.80
2022-11-05T06:37:11.966Z,33.75
2022-11-05T06:39:39.480Z,27.30
2022-11-05T06:42:18.253Z,24.60
2022-11-05T06:44:49.092Z,24.38
2022-11-05T06:47:23.318Z,22.35
2022-11-05T06:49:51.563Z,23.60
2022-11-05T06:52:21.221Z,28.05
2022-11-05T06:54:51.106Z,35.08
2022-11-05T06:57:21.166Z,27.25
2022-11-05T06:59:48.782Z,28.33
2022-11-05T07:02:18.593Z,27.15
2022-11-05T07:04:48.867Z,24.40
2022-11-05T07:07:19.582Z,21.85
2022-11-05T07:09:51.810Z,29.80
2022-11-05T07:12:21.248Z,27.55
2022-11-05T07:14:50.965Z,24.25
2022-11-05T07:17:21.301Z,21.35
2022-11-05T07:19:51.178Z,26.90
2022-11-05T07:22:21.914Z,22.42
2022-11-05T07:24:50.799Z,28.55
2022-11-05T07:27:19.879Z,24.17
2022-11-05T07:29:51.379Z,23.30
2022-11-05T07:32:21.082Z,21.27
2022-11-05T07:34:50.605Z,23.70
2022-11-05T07:37:21.380Z,25.75
2022-11-05T07:39:50.945Z,26.67
2022-11-05T07:42:22.670Z,26.83
2022-11-05T07:44:50.654Z,30.70
2022-11-05T07:47:18.833Z,30.25
2022-11-05T07:49:50.973Z,23.98
2022-11-05T07:52:21.742Z,29.35
2022-11-05T07:54:50.988Z,24.77
2022-11-05T07:57:22.151Z,23.85
2022-11-05T07:59:54.455Z,23.15
2022-11-05T08:02:33.560Z,24.95
2022-11-05T08:05:33.672Z,24.60
2022-11-05T08:08:14.400Z,30.27
2022-11-05T08:10:46.243Z,27.20
2022-11-05T08:13:14.827Z,25.55
2022-11-05T08:15:45.771Z,30.95
2022-11-05T08:18:17.470Z,28.15
2022-11-05T08:20:48.915Z,30.13
2022-11-05T08:23:24.601Z,27.83
2022-11-05T08:25:57.149Z,26.98
2022-11-05T08:28:26.610Z,33.45
2022-11-05T08:30:57.507Z,31.92
2022-11-05T08:33:29.029Z,30.23
2022-11-05T08:35:59.226Z,30.83
2022-11-05T08:38:27.780Z,43.47
2022-11-05T08:40:58.224Z,35.00
2022-11-05T08:43:25.705Z,36.15
2022-11-05T08:45:58.522Z,33.22
2022-11-05T08:48:26.675Z,37.08
2022-11-05T08:50:57.445Z,38.10
2022-11-05T08:53:25.997Z,42.17
2022-11-05T08:56:01.112Z,39.67
2022-11-05T08:58:31.808Z,42.20
2022-11-05T09:01:05.207Z,39.17
2022-11-05T09:03:34.853Z,43.08
2022-11-05T09:06:06.234Z,43.65
2022-11-05T09:08:36.407Z,47.65
2022-11-05T09:11:05.863Z,50.78
2022-11-05T09:13:36.127Z,50.78
2022-11-05T09:16:08.082Z,52.88
2022-11-05T09:18:39.698Z,52.97
2022-11-05T09:21:07.884Z,47.63
2022-11-05T09:23:39.063Z,48.03
2022-11-05T09:26:07.854Z,53.20
2022-11-05T09:28:41.670Z,51.95
2022-11-05T09:31:13.711Z,50.65
2022-11-05T09:33:43.007Z,52.20
2022-11-05T09:36:14.143Z,52.80
2022-11-05T09:38:45.168Z,66.07
2022-11-05T09:41:34.317Z,61.95
2022-11-05T09:44:09.511Z,51.10
2022-11-05T09:46:49.821Z,50.10
2022-11-05T09:49:36.424Z,51.28
2022-11-05T09:52:05.490Z,57.75
2022-11-05T09:54:35.349Z,60.35
2022-11-05T09:57:18.516Z,53.55
2022-11-05T09:59:53.659Z,56.28
2022-11-05T10:02:44.347Z,53.30
2022-11-05T10:05:17.506Z,46.78
2022-11-05T10:07:54.132Z,58.58
2022-11-05T10:11:06.625Z,57.35
2022-11-05T10:13:57.810Z,58.80
2022-11-05T10:16:41.873Z,67.60
2022-11-05T10:19:25.159Z,65.30
2022-11-05T10:22:20.985Z,69.63
2022-11-05T10:24:52.402Z,64.15
2022-11-05T10:27:31.609Z,72.53
2022-11-05T10:30:04.378Z,66.95
2022-11-05T10:32:38.865Z,69.78
2022-11-05T10:35:16.307Z,70.32
2022-11-05T10:37:47.067Z,47.30
2022-11-05T10:40:50.341Z,35.35
2022-11-05T10:43:30.342Z,35.50
2022-11-05T10:46:39.005Z,31.00
2022-11-05T10:49:09.517Z,23.52
2022-11-05T10:51:40.842Z,26.50
2022-11-05T10:54:24.255Z,24.10
2022-11-05T10:56:51.772Z,24.00
2022-11-05T10:59:30.165Z,26.92
2022-11-05T11:02:29.827Z,24.42
2022-11-05T11:04:59.042Z,27.27
2022-11-05T11:07:30.424Z,29.13
2022-11-05T11:10:00.681Z,19.17
2022-11-05T11:12:41.526Z,23.63
2022-11-05T11:15:18.324Z,27.40
2022-11-05T11:17:49.923Z,23.02
2022-11-05T11:20:17.909Z,23.05
2022-11-05T11:23:20.677Z,24.45
2022-11-05T11:26:02.343Z,21.30
2022-11-05T11:28:54.300Z,26.92
2022-11-05T11:31:25.046Z,20.67
2022-11-05T11:34:05.722Z,17.90
2022-11-05T11:36:38.569Z,19.33
2022-11-05T11:39:22.654Z,16.85
2022-11-05T11:42:04.683Z,19.45
2022-11-05T11:44:43.111Z,16.05
2022-11-05T11:47:18.283Z,14.55
2022-11-05T11:49:51.899Z,14.35
2022-11-05T11:52:34.698Z,13.30
2022-11-05T11:55:24.044Z,21.92
2022-11-05T11:58:08.034Z,17.60
2022-11-05T12:00:48.597Z,19.30
2022-11-05T12:03:28.261Z,21.08
2022-11-05T12:06:20.333Z,20.65
2022-11-05T12:09:19.739Z,17.70
2022-11-05T12:12:14.805Z,15.35
2022-11-05T12:14:55.308Z,14.80
2022-11-05T12:17:55.121Z,13.23
2022-11-05T12:20:48.639Z,14.07
2022-11-05T12:23:45.061Z,12.03
2022-11-05T12:26:24.224Z,16.98
2022-11-05T12:29:19.444Z,16.15
2022-11-05T12:32:05.997Z,11.30
2022-11-05T12:35:29.087Z,12.82
2022-11-05T12:38:46.076Z,12.15
2022-11-05T12:41:37.116Z,14.52
2022-11-05T12:44:40.333Z,16.52
2022-11-05T12:47:45.223Z,12.93
2022-11-05T12:50:30.049Z,9.52
2022-11-05T12:53:26.189Z,13.30
2022-11-05T12:56:04.503Z,13.30
2022-11-05T12:58:40.870Z,11.02
2022-11-05T13:01:25.194Z,10.68
2022-11-05T13:04:26.716Z,8.68
2022-11-05T13:06:57.302Z,7.53
2022-11-05T13:09:44.369Z,8.90
2022-11-05T13:12:17.967Z,9.10
2022-11-05T13:14:58.706Z,10.75
2022-11-05T13:17:51.943Z,9.57
2022-11-05T13:20:28.735Z,9.45
2022-11-05T13:23:26.732Z,11.30
2022-11-05T13:26:07.527Z,13.15
2022-11-05T13:28:59.662Z,12.10
2022-11-05T13:31:41.960Z,12.65
2022-11-05T13:34:13.961Z,9.63
2022-11-05T13:37:27.376Z,9.70
2022-11-05T13:40:05.665Z,10.65
2022-11-05T13:43:03.849Z,10.82
2022-11-05T13:46:17.478Z,11.70
2022-11-05T13:49:21.526Z,7.03
2022-11-05T13:52:26.961Z,10.38
2022-11-05T13:55:34.638Z,7.35
2022-11-05T13:58:15.608Z,10.32
2022-11-05T14:01:14.168Z,10.55
2022-11-05T14:03:50.826Z,12.60
2022-11-05T14:06:38.386Z,11.00
2022-11-05T14:09:25.280Z,14.25
2022-11-05T14:12:06.920Z,13.60
2022-11-05T14:14:57.453Z,13.63
2022-11-05T14:17:58.482Z,10.25
2022-11-05T14:20:49.422Z,10.52
2022-11-05T14:23:26.094Z,11.60
2022-11-05T14:26:21.685Z,10.18
2022-11-05T14:29:21.730Z,9.60
2022-11-05T14:32:13.329Z,14.55
2022-11-05T14:35:12.350Z,15.95
2022-11-05T14:37:55.774Z,14.32
2022-11-05T14:40:29.114Z,11.45
2022-11-05T14:43:06.173Z,13.55
2022-11-05T14:45:38.747Z,14.98
2022-11-05T14:48:40.408Z,18.48
2022-11-05T14:51:42.116Z,17.73
2022-11-05T14:54:23.252Z,13.85
2022-11-05T14:57:05.514Z,18.63
2022-11-05T14:59:53.377Z,15.18
2022-11-05T15:02:35.210Z,15.95
2022-11-05T15:05:39.697Z,16.70
2022-11-05T15:08:54.478Z,14.55
2022-11-05T15:11:44.419Z,15.00
2022-11-05T15:14:55.994Z,13.57
2022-11-05T15:17:33.455Z,14.13
2022-11-05T15:20:21.749Z,15.68
2022-11-05T15:22:57.547Z,13.68
2022-11-05T15:26:22.500Z,15.68
2022-11-05T15:28:52.891Z,17.35
2022-11-05T15:31:46.769Z,16.08
2022-11-05T15:34:38.634Z,16.83
2022-11-05T15:37:14.844Z,14.25
2022-11-05T15:39:45.788Z,16.52
2022-11-05T15:42:38.016Z,20.95
2022-11-05T15:45:23.031Z,16.95
2022-11-05T15:47:51.157Z,19.88
2022-11-05T15:50:22.811Z,22.10
2022-11-05T15:53:04.860Z,21.70
2022-11-05T15:55:56.380Z,24.52
2022-11-05T15:58:24.243Z,25.17
2022-11-05T16:00:53.473Z,32.53
2022-11-05T16:03:32.626Z,33.78
2022-11-05T16:06:01.022Z,29.88
2022-11-05T16:08:30.566Z,29.65
2022-11-05T16:11:00.844Z,29.98
2022-11-05T16:13:42.354Z,34.25
2022-11-05T16:16:33.658Z,36.25
2022-11-05T16:19:04.714Z,41.53
2022-11-05T16:21:56.420Z,37.83
2022-11-05T16:24:29.474Z,38.30
2022-11-05T16:27:02.973Z,40.55
2022-11-05T16:29:38.829Z,40.10
2022-11-05T16:32:30.556Z,29.50
2022-11-05T16:35:05.647Z,38.10
2022-11-05T16:40:25.853Z,43.33
2022-11-05T16:42:59.111Z,45.22
2022-11-05T16:45:31.143Z,42.05
2022-11-05T16:48:01.403Z,43.00
2022-11-05T16:50:34.671Z,37.10
2022-11-05T16:53:02.173Z,35.88
2022-11-05T16:55:34.433Z,46.35
2022-11-05T16:58:01.927Z,40.13
2022-11-05T17:00:31.439Z,35.63
2022-11-05T17:03:01.710Z,43.58
2022-11-05T17:05:33.461Z,45.42
2022-11-05T17:08:03.067Z,45.05
2022-11-05T17:10:33.694Z,46.13
2022-11-05T17:13:05.524Z,44.05
2022-11-05T17:15:38.471Z,48.33
2022-11-05T17:18:07.929Z,50.15
2022-11-05T17:20:47.242Z,42.30
2022-11-05T17:23:22.823Z,44.13
2022-11-05T17:26:02.611Z,42.50
2022-11-05T17:28:35.436Z,42.65
2022-11-05T17:31:08.121Z,41.92
2022-11-05T17:33:38.833Z,51.42
2022-11-05T17:36:20.009Z,43.92
2022-11-05T17:38:52.261Z,44.38
2022-11-05T17:41:25.591Z,49.33
2022-11-05T17:44:14.108Z,47.85
2022-11-05T17:46:48.740Z,40.22
2022-11-05T17:49:20.426Z,45.88
2022-11-05T17:51:51.022Z,47.55
2022-11-05T17:54:22.550Z,45.72
2022-11-05T17:56:54.217Z,46.72
2022-11-05T17:59:25.280Z,52.33
2022-11-05T18:01:55.983Z,51.35
2022-11-05T18:04:26.562Z,54.17
2022-11-05T18:06:57.754Z,48.83
2022-11-05T18:09:27.731Z,51.72
2022-11-05T18:11:57.387Z,50.15
2022-11-05T18:14:27.882Z,52.45
2022-11-05T18:17:03.168Z,48.92
2022-11-05T18:19:33.813Z,53.28
2022-11-05T18:22:06.779Z,52.15
2022-11-05T18:24:38.632Z,55.95
2022-11-05T18:27:08.996Z,54.88
2022-11-05T18:29:36.500Z,48.22
2022-11-05T18:32:06.618Z,45.28
2022-11-05T18:34:36.002Z,89.90
2022-11-05T18:37:05.778Z,46.90
2022-11-05T18:39:37.898Z,44.75
2022-11-05T18:42:09.293Z,45.95
2022-11-05T18:44:39.748Z,56.13
2022-11-05T18:47:08.331Z,51.35
2022-11-05T18:49:40.701Z,46.33
2022-11-05T18:52:11.952Z,46.43
2022-11-05T18:54:42.587Z,45.65
2022-11-05T18:57:13.588Z,46.58
2022-11-05T18:59:43.224Z,47.22
2022-11-05T19:02:14.349Z,50.13
2022-11-05T19:05:06.615Z,53.65
2022-11-05T19:07:43.407Z,48.70
2022-11-05T19:10:14.671Z,48.72
2022-11-05T19:12:43.581Z,47.50
2022-11-05T19:15:13.299Z,55.72
2022-11-05T19:17:43.370Z,46.72
2022-11-05T19:20:14.443Z,47.63
2022-11-05T19:22:42.278Z,42.90
2022-11-05T19:25:12.063Z,42.33
2022-11-05T19:27:44.118Z,48.35
2022-11-05T19:30:13.716Z,39.13
2022-11-05T19:32:44.881Z,46.55
2022-11-05T19:35:14.483Z,49.70
2022-11-05T19:37:46.703Z,48.15
2022-11-05T19:40:17.878Z,47.92
2022-11-05T19:42:48.467Z,47.30
2022-11-05T19:48:13.572Z,54.55
2022-11-05T19:50:46.523Z,52.03
2022-11-05T19:53:15.780Z,54.88
2022-11-05T19:55:45.585Z,56.17
2022-11-05T19:58:18.429Z,59.78
2022-11-05T20:00:46.369Z,57.28
2022-11-05T20:03:15.992Z,50.67
2022-11-05T20:05:45.480Z,59.58
2022-11-05T20:08:15.108Z,50.65
2022-11-05T20:10:43.615Z,49.63
2022-11-05T20:13:32.312Z,56.13
2022-11-05T20:16:03.386Z,55.72
2022-11-05T20:18:36.115Z,51.88
2022-11-05T20:21:08.979Z,51.70
2022-11-05T20:23:37.794Z,52.42
2022-11-05T20:26:07.633Z,56.05
2022-11-05T20:28:43.178Z,54.20
2022-11-05T20:31:15.306Z,55.67
2022-11-05T20:33:52.931Z,55.20
2022-11-05T20:36:24.007Z,54.90
2022-11-05T20:39:00.527Z,60.88
2022-11-05T20:41:28.804Z,58.60
2022-11-05T20:43:55.855Z,60.50
2022-11-05T20:46:23.805Z,60.42
2022-11-05T20:48:56.264Z,64.85
2022-11-05T20:51:29.390Z,64.43
2022-11-05T20:54:04.575Z,69.07
2022-11-05T20:56:37.624Z,67.97
2022-11-05T20:59:08.286Z,66.45
2022-11-05T21:01:38.036Z,63.13
2022-11-05T21:04:07.664Z,66.28
2022-11-05T21:06:38.886Z,68.60
2022-11-05T21:09:07.127Z,59.25
2022-11-05T21:11:56.831Z,64.30
2022-11-05T21:14:26.630Z,58.83
2022-11-05T21:16:58.922Z,60.17
2022-11-05T21:19:28.813Z,63.42
2022-11-05T21:21:58.997Z,62.83
2022-11-05T21:24:30.573Z,58.50
2022-11-05T21:26:58.755Z,69.35
2022-11-05T21:29:29.261Z,64.15
2022-11-05T21:32:00.944Z,67.32
2022-11-05T21:34:29.439Z,64.40
2022-11-05T21:36:57.980Z,65.60
2022-11-05T21:39:28.184Z,64.32
2022-11-05T21:41:59.014Z,63.63
2022-11-05T21:44:28.794Z,62.42
2022-11-05T21:46:58.495Z,71.47
2022-11-05T21:49:30.047Z,67.05
2022-11-05T21:52:18.906Z,66.18
2022-11-05T21:55:09.933Z,72.82
2022-11-05T21:57:56.854Z,63.72
2022-11-05T22:00:25.864Z,57.38
2022-11-05T22:02:55.447Z,60.00
2022-11-05T22:05:25.076Z,63.08
2022-11-05T22:07:54.848Z,65.30
2022-11-05T22:10:25.912Z,60.58
2022-11-05T22:12:56.096Z,59.17
2022-11-05T22:15:25.465Z,55.47
2022-11-05T22:17:56.076Z,60.83
2022-11-05T22:20:24.977Z,66.18
2022-11-05T22:22:55.520Z,62.03
2022-11-05T22:25:26.169Z,62.20
2022-11-05T22:27:53.894Z,66.55
2022-11-05T22:30:22.470Z,78.25
2022-11-05T22:32:52.480Z,73.00
2022-11-05T22:35:21.889Z,63.08
2022-11-05T22:37:52.635Z,68.75
2022-11-05T22:40:24.169Z,61.25
2022-11-05T22:42:54.345Z,64.70
2022-11-05T22:45:24.529Z,65.57
2022-11-05T22:47:55.249Z,63.25
2022-11-05T22:50:24.821Z,68.85
2022-11-05T22:52:55.085Z,70.55
2022-11-05T22:55:22.710Z,69.10
2022-11-05T22:57:55.280Z,67.32
2022-11-05T23:00:40.007Z,70.03
2022-11-05T23:05:40.852Z,68.70
2022-11-05T23:08:29.909Z,67.13
2022-11-05T23:11:16.936Z,76.03
2022-11-05T23:13:48.849Z,76.38
2022-11-05T23:16:39.038Z,77.32
2022-11-05T23:19:30.936Z,72.32
2022-11-05T23:22:21.011Z,68.85
2022-11-05T23:24:51.200Z,73.72
2022-11-05T23:27:23.343Z,73.70
2022-11-05T23:29:53.139Z,67.72
2022-11-05T23:32:30.726Z,74.75
2022-11-05T23:34:59.587Z,71.53
2022-11-05T23:37:48.960Z,72.20
2022-11-05T23:41:00.959Z,65.72
2022-11-05T23:43:48.974Z,76.50
2022-11-05T23:46:40.035Z,71.72
2022-11-05T23:49:10.701Z,65.82
2022-11-05T23:51:40.161Z,69.22
2022-11-05T23:54:10.239Z,60.85
2022-11-05T23:56:41.483Z,59.72
2022-11-05T23:59:12.313Z,54.28
